Time;durP1;ratioP1;P1;durP2;ratioP2;P2;SDS_P1;SDS_P2;PMS_P1;PMS_P2;Temp;Humidity;BMP_temperature;BMP_pressure;BME280_temperature;BME280_humidity;BME280_pressure;Samples;Min_cycle;Max_cycle;Signal;HPM_P1;HPM_P2
2023/03/13 00:02:55;;;;;;;33.45;20.10;;;11.90;88.50;;;;;;5030835;28;20056;-77
2023/03/13 00:05:59;;;;;;;33.42;18.60;;;11.70;89.30;;;;;;5031078;28;20044;-77
2023/03/13 00:09:04;;;;;;;37.08;18.80;;;;;;;;;;5030672;28;20055;-76
2023/03/13 00:12:08;;;;;;;34.63;19.63;;;11.60;90.20;;;;;;5030721;28;20052;-76
2023/03/13 00:15:13;;;;;;;48.17;20.27;;;11.60;90.30;;;;;;5030711;28;20040;-76
2023/03/13 00:18:17;;;;;;;45.08;22.30;;;11.80;90.30;;;;;;5030768;28;20068;-76
2023/03/13 00:21:24;;;;;;;41.13;19.45;;;11.50;90.40;;;;;;5030475;28;20052;-77
2023/03/13 00:24:28;;;;;;;37.03;19.08;;;11.60;90.60;;;;;;5030879;28;20057;-77
2023/03/13 00:27:33;;;;;;;36.03;18.73;;;11.60;90.70;;;;;;5030565;28;20045;-77
2023/03/13 00:30:37;;;;;;;36.50;20.65;;;11.50;90.50;;;;;;5030438;28;20048;-77
2023/03/13 00:33:44;;;;;;;37.25;20.60;;;11.60;90.10;;;;;;5035659;28;20597;-78
2023/03/13 00:36:48;;;;;;;40.65;21.42;;;11.60;90.20;;;;;;5034887;28;20056;-78
2023/03/13 00:39:52;;;;;;;40.25;22.25;;;;;;;;;;5022238;28;20052;-77
2023/03/13 00:42:57;;;;;;;37.63;20.98;;;;;;;;;;5033686;28;20045;-77
2023/03/13 00:46:01;;;;;;;31.23;17.67;;;11.60;90.10;;;;;;5034500;28;20497;-77
2023/03/13 00:49:05;;;;;;;32.75;18.23;;;11.90;90.10;;;;;;5034405;28;20063;-77
2023/03/13 00:52:11;;;;;;;30.95;17.52;;;11.60;90.10;;;;;;5033571;28;20048;-77
2023/03/13 00:55:15;;;;;;;35.58;19.50;;;;;;;;;;5034419;28;20060;-78
2023/03/13 00:58:19;;;;;;;34.97;18.63;;;11.30;90.70;;;;;;5022121;28;20048;-78
2023/03/13 01:01:26;;;;;;;38.10;19.88;;;11.30;91.00;;;;;;5034164;28;20049;-78
2023/03/13 01:04:31;;;;;;;32.40;19.17;;;12.40;91.30;;;;;;5034338;28;20056;-78
2023/03/13 01:07:35;;;;;;;32.97;19.27;;;11.20;91.00;;;;;;5034022;28;20052;-78
2023/03/13 01:10:39;;;;;;;30.60;17.95;;;;;;;;;;5033929;28;20539;-77
2023/03/13 01:13:45;;;;;;;45.17;18.98;;;11.10;91.10;;;;;;5033984;28;20044;-78
2023/03/13 01:16:49;;;;;;;30.50;18.35;;;13.00;91.60;;;;;;5033777;28;20044;-78
2023/03/13 01:19:56;;;;;;;31.70;16.65;;;11.00;91.20;;;;;;5033203;28;20045;-78
2023/03/13 01:23:00;;;;;;;31.55;17.25;;;10.60;91.00;;;;;;5056009;28;20044;-78
2023/03/13 01:26:05;;;;;;;29.60;18.00;;;10.80;91.30;;;;;;5033742;28;20040;-78
2023/03/13 01:29:09;;;;;;;28.00;17.33;;;10.70;91.50;;;;;;5032950;28;20547;-77
2023/03/13 01:32:13;;;;;;;39.00;17.70;;;10.70;91.60;;;;;;5056049;28;20406;-77
2023/03/13 01:35:18;;;;;;;28.70;16.15;;;12.00;91.80;;;;;;5033712;28;20041;-77
2023/03/13 01:38:22;;;;;;;29.02;16.33;;;11.20;91.60;;;;;;5032656;28;20048;-78
2023/03/13 01:41:28;;;;;;;27.65;16.30;;;10.40;91.60;;;;;;5033683;28;20216;-77
2023/03/13 01:44:56;;;;;;;32.15;15.95;;;9.10;91.80;;;;;;5032661;28;20044;-77
2023/03/13 01:48:03;;;;;;;28.30;16.17;;;10.30;92.10;;;;;;5032586;28;20053;-78
2023/03/13 01:51:36;;;;;;;27.88;15.02;;;10.30;92.00;;;;;;5032581;28;20044;-77
2023/03/13 01:54:55;;;;;;;25.98;15.15;;;10.30;92.20;;;;;;5032595;28;20056;-77
2023/03/13 01:57:59;;;;;;;30.65;16.60;;;10.30;92.50;;;;;;5032699;28;20052;-77
2023/03/13 02:01:05;;;;;;;29.10;14.75;;;10.60;92.30;;;;;;5032492;28;20057;-77
2023/03/13 02:04:09;;;;;;;31.70;15.43;;;10.40;92.50;;;;;;5033310;28;20081;-77
2023/03/13 02:07:18;;;;;;;30.80;16.13;;;10.40;92.50;;;;;;5032444;28;20429;-78
2023/03/13 02:10:25;;;;;;;25.38;14.63;;;10.40;92.30;;;;;;5032803;28;20401;-78
2023/03/13 02:13:29;;;;;;;28.88;16.95;;;10.40;92.40;;;;;;5033070;28;20045;-77
2023/03/13 02:16:34;;;;;;;29.55;14.98;;;10.40;92.50;;;;;;5033117;28;20050;-77
2023/03/13 02:19:44;;;;;;;32.95;15.05;;;10.50;92.20;;;;;;5033165;28;20040;-77
2023/03/13 02:22:57;;;;;;;25.13;15.00;;;10.30;92.10;;;;;;5032262;28;20052;-78
2023/03/13 02:26:02;;;;;;;26.33;15.57;;;10.10;92.40;;;;;;5033282;28;20044;-78
2023/03/13 02:29:17;;;;;;;26.13;15.68;;;8.90;92.10;;;;;;5043417;28;20051;-77
2023/03/13 02:32:24;;;;;;;28.08;15.60;;;10.00;92.60;;;;;;5031916;28;20060;-77
2023/03/13 02:35:29;;;;;;;28.17;15.32;;;10.10;92.70;;;;;;5032941;28;20056;-77
2023/03/13 02:38:54;;;;;;;23.55;14.13;;;10.20;92.20;;;;;;5031892;28;20048;-75
2023/03/13 02:42:00;;;;;;;27.50;14.43;;;10.10;92.00;;;;;;5032209;28;20056;-77
2023/03/13 02:45:05;;;;;;;25.70;15.05;;;;;;;;;;5031773;28;20143;-77
2023/03/13 02:48:10;;;;;;;24.95;14.48;;;9.90;92.60;;;;;;5031494;28;20045;-77
2023/03/13 02:51:29;;;;;;;25.58;13.90;;;10.00;92.30;;;;;;5031418;28;20048;-77
2023/03/13 02:54:36;;;;;;;26.92;13.13;;;;;;;;;;5031647;28;20052;-77
2023/03/13 02:57:40;;;;;;;25.52;14.25;;;10.90;92.70;;;;;;5031434;28;20048;-77
2023/03/13 03:00:44;;;;;;;21.63;12.57;;;10.00;92.10;;;;;;5031581;28;20036;-77
2023/03/13 03:03:48;;;;;;;21.77;12.48;;;10.00;92.00;;;;;;5031492;28;20504;-77
2023/03/13 03:06:52;;;;;;;25.58;12.85;;;12.50;92.70;;;;;;5031983;28;20060;-77
2023/03/13 03:09:57;;;;;;;23.55;12.90;;;9.60;92.50;;;;;;5030776;28;20056;-77
2023/03/13 03:13:01;;;;;;;24.88;12.98;;;;;;;;;;5031245;28;20040;-77
2023/03/13 03:16:12;;;;;;;24.10;12.57;;;9.60;92.90;;;;;;5030982;28;20397;-77
2023/03/13 03:19:16;;;;;;;20.42;12.45;;;9.70;93.10;;;;;;5031002;28;20044;-77
2023/03/13 03:22:20;;;;;;;21.23;11.77;;;9.60;92.80;;;;;;5030819;28;20040;-77
2023/03/13 03:25:23;;;;;;;21.17;12.68;;;8.80;92.50;;;;;;5030751;28;20056;-77
2023/03/13 03:28:28;;;;;;;20.23;13.02;;;9.60;92.70;;;;;;5053882;28;20052;-77
2023/03/13 03:31:32;;;;;;;22.73;13.18;;;;;;;;;;5030681;28;20060;-77
2023/03/13 03:34:36;;;;;;;22.27;12.18;;;9.50;92.90;;;;;;5030532;28;20081;-77
2023/03/13 03:37:41;;;;;;;20.55;11.45;;;9.20;92.70;;;;;;5053696;28;20060;-77
2023/03/13 03:40:45;;;;;;;24.17;11.85;;;9.10;92.80;;;;;;5030941;28;20060;-76
2023/03/13 03:43:49;;;;;;;23.38;12.68;;;9.80;93.20;;;;;;5031324;28;20053;-76
2023/03/13 03:46:57;;;;;;;23.52;11.90;;;10.20;93.40;;;;;;5030611;28;20052;-76
2023/03/13 03:50:04;;;;;;;22.70;11.75;;;9.40;93.30;;;;;;5019100;28;20052;-77
2023/03/13 03:53:14;;;;;;;25.42;11.40;;;7.30;92.70;;;;;;5030191;28;20048;-78
2023/03/13 03:56:18;;;;;;;22.92;11.13;;;9.40;93.20;;;;;;5030592;28;20049;-77
2023/03/13 03:59:28;;;;;;;25.52;12.20;;;9.50;93.40;;;;;;5030466;28;20052;-77
2023/03/13 04:02:39;;;;;;;21.50;12.07;;;8.90;93.30;;;;;;5030083;28;20044;-78
2023/03/13 04:05:45;;;;;;;24.55;12.32;;;9.60;93.50;;;;;;5029904;28;20068;-77
2023/03/13 04:08:49;;;;;;;24.52;12.48;;;9.90;93.70;;;;;;5029859;28;20041;-77
2023/03/13 04:11:56;;;;;;;27.55;12.95;;;9.80;93.90;;;;;;5030062;28;20064;-77
2023/03/13 04:15:00;;;;;;;24.65;12.60;;;9.90;93.90;;;;;;5029726;28;20045;-77
2023/03/13 04:18:04;;;;;;;25.13;12.32;;;9.90;94.00;;;;;;5029948;28;20052;-77
2023/03/13 04:21:09;;;;;;;18.48;12.23;;;;;;;;;;5030040;28;20488;-77
2023/03/13 04:24:21;;;;;;;20.58;12.35;;;10.00;93.30;;;;;;5030977;28;20048;-77
2023/03/13 04:27:25;;;;;;;18.90;11.85;;;9.90;93.10;;;;;;5041354;28;20126;-77
2023/03/13 04:30:29;;;;;;;14.40;9.18;;;9.90;92.70;;;;;;5041221;28;20124;-77
2023/03/13 04:33:53;;;;;;;21.08;9.30;;;;;;;;;;5030365;28;20040;-78
2023/03/13 04:37:06;;;;;;;23.45;11.88;;;10.10;92.30;;;;;;5030812;28;20048;-77
2023/03/13 04:40:12;;;;;;;20.85;10.45;;;9.30;92.30;;;;;;5030496;28;20160;-77
2023/03/13 04:43:47;;;;;;;21.63;10.95;;;9.50;92.90;;;;;;5030634;28;20057;-77
2023/03/13 04:47:15;;;;;;;21.20;11.23;;;9.40;93.20;;;;;;5038632;28;20441;-78
2023/03/13 04:50:37;;;;;;;18.48;10.80;;;9.40;93.40;;;;;;5030237;28;20551;-77
2023/03/13 04:54:03;;;;;;;28.48;11.00;;;9.20;93.50;;;;;;5029853;28;20048;-78
2023/03/13 04:57:22;;;;;;;25.48;11.77;;;8.80;93.60;;;;;;5030597;28;20045;-77
2023/03/13 05:00:40;;;;;;;22.23;11.13;;;9.60;93.80;;;;;;5029457;28;20402;-77
2023/03/13 05:04:17;;;;;;;29.83;12.05;;;7.00;93.30;;;;;;5030075;28;20045;-77
2023/03/13 05:07:43;;;;;;;20.70;10.73;;;8.60;93.20;;;;;;5030315;28;20504;-77
2023/03/13 05:10:47;;;;;;;24.42;10.98;;;9.60;93.20;;;;;;5030136;28;20057;-77
2023/03/13 05:14:10;;;;;;;22.38;10.65;;;9.90;93.00;;;;;;5029425;28;20048;-77
2023/03/13 05:17:24;;;;;;;18.38;10.25;;;9.10;93.10;;;;;;5029319;28;20053;-77
2023/03/13 05:20:45;;;;;;;104.13;20.15;;;9.00;93.30;;;;;;5044977;28;20056;-76
2023/03/13 05:24:18;;;;;;;43.00;13.50;;;10.30;93.80;;;;;;5039233;28;20052;-76
2023/03/13 05:27:42;;;;;;;35.95;13.40;;;7.00;93.10;;;;;;5033676;28;20053;-77
2023/03/13 05:31:22;;;;;;;29.95;12.15;;;9.10;94.00;;;;;;5033351;28;20052;-73
2023/03/13 05:34:40;;;;;;;34.72;12.27;;;9.70;93.80;;;;;;5033091;28;20037;-72
2023/03/13 05:38:02;;;;;;;33.67;11.85;;;9.40;93.60;;;;;;5032622;28;20041;-73
2023/03/13 05:41:26;;;;;;;35.67;10.63;;;9.20;93.50;;;;;;5037742;28;20060;-73
2023/03/13 05:44:41;;;;;;;32.97;11.38;;;9.20;93.40;;;;;;5033197;28;20477;-73
2023/03/13 05:48:05;;;;;;;28.48;11.82;;;9.50;93.30;;;;;;5033590;28;20052;-73
2023/03/13 05:51:16;;;;;;;25.75;10.50;;;9.80;93.30;;;;;;5032633;28;20056;-73
2023/03/13 05:54:29;;;;;;;20.80;10.68;;;11.70;92.90;;;;;;5032263;28;20044;-74
2023/03/13 05:58:00;;;;;;;26.83;10.30;;;12.50;90.10;;;;;;5033180;28;20155;-74
2023/03/13 06:01:42;;;;;;;32.47;11.10;;;14.10;85.20;;;;;;5032660;28;20040;-74
2023/03/13 06:04:53;;;;;;;29.43;13.40;;;15.10;82.10;;;;;;5043884;28;20036;-74
2023/03/13 06:07:57;;;;;;;27.67;9.65;;;15.90;78.90;;;;;;5032463;28;20072;-74
2023/03/13 06:11:02;;;;;;;26.27;9.88;;;16.40;77.20;;;;;;5032041;28;20420;-74
2023/03/13 06:14:06;;;;;;;37.80;9.80;;;17.00;76.40;;;;;;5031946;28;20412;-74
2023/03/13 06:17:30;;;;;;;21.17;8.90;;;18.10;74.50;;;;;;5032777;28;20052;-75
2023/03/13 06:20:34;;;;;;;16.70;9.18;;;18.20;74.70;;;;;;5032704;28;20506;-73
2023/03/13 06:23:39;;;;;;;19.88;9.95;;;16.90;73.50;;;;;;5032881;28;20052;-73
2023/03/13 06:26:43;;;;;;;25.05;11.43;;;18.90;74.40;;;;;;5032859;28;20049;-74
2023/03/13 06:29:47;;;;;;;26.38;11.05;;;18.10;73.60;;;;;;5032199;28;20052;-73
2023/03/13 06:32:51;;;;;;;34.13;12.10;;;18.30;72.80;;;;;;5032834;28;20060;-73
2023/03/13 06:35:55;;;;;;;52.90;12.40;;;18.50;72.80;;;;;;5032546;28;20049;-73
2023/03/13 06:38:59;;;;;;;35.05;11.30;;;18.40;72.70;;;;;;5031857;28;20053;-72
2023/03/13 06:42:04;;;;;;;40.70;11.65;;;18.30;73.20;;;;;;5031325;28;20052;-73
2023/03/13 06:45:08;;;;;;;26.98;10.77;;;18.20;72.70;;;;;;5032292;28;20500;-73
2023/03/13 06:48:12;;;;;;;25.50;11.68;;;18.10;73.40;;;;;;5032309;28;20496;-73
2023/03/13 06:51:19;;;;;;;28.45;11.05;;;17.90;73.90;;;;;;5032038;28;20143;-73
2023/03/13 06:54:24;;;;;;;37.67;11.35;;;17.90;74.30;;;;;;5032178;28;20048;-73
2023/03/13 06:57:28;;;;;;;24.15;11.13;;;17.40;75.40;;;;;;5032208;28;20052;-73
2023/03/13 07:00:33;;;;;;;24.70;11.02;;;17.10;76.50;;;;;;5031954;28;20048;-73
2023/03/13 07:03:38;;;;;;;34.28;11.40;;;16.90;77.60;;;;;;5032074;28;20393;-73
2023/03/13 07:06:42;;;;;;;36.67;12.60;;;16.90;78.30;;;;;;5032018;28;20041;-73
2023/03/13 07:09:46;;;;;;;34.15;12.05;;;16.80;78.80;;;;;;5031782;28;20525;-74
2023/03/13 07:12:50;;;;;;;33.95;12.00;;;16.80;78.90;;;;;;5031784;28;20064;-74
2023/03/13 07:15:54;;;;;;;37.58;13.45;;;16.90;78.40;;;;;;5031519;28;20048;-74
2023/03/13 07:18:58;;;;;;;24.42;11.15;;;17.10;77.50;;;;;;5030777;28;20053;-74
2023/03/13 07:22:02;;;;;;;24.05;10.02;;;17.20;76.50;;;;;;5031848;28;20040;-73
2023/03/13 07:25:06;;;;;;;21.42;9.73;;;17.30;74.40;;;;;;5031339;28;20044;-72
2023/03/13 07:28:11;;;;;;;36.03;11.40;;;17.50;74.30;;;;;;5031313;28;20037;-72
2023/03/13 07:31:18;;;;;;;36.70;13.73;;;17.50;75.50;;;;;;5031136;28;20421;-70
2023/03/13 07:34:22;;;;;;;43.10;12.70;;;17.70;77.70;;;;;;5030876;28;20041;-72
2023/03/13 07:37:25;;;;;;;33.00;12.23;;;18.00;77.90;;;;;;5031099;28;20387;-72
2023/03/13 07:40:29;;;;;;;25.52;11.30;;;18.10;77.40;;;;;;5030305;28;20056;-71
2023/03/13 07:43:33;;;;;;;30.77;12.05;;;18.40;76.80;;;;;;5030577;28;20041;-72
2023/03/13 07:46:37;;;;;;;30.10;12.23;;;18.50;76.40;;;;;;5031271;28;20049;-73
2023/03/13 07:49:42;;;;;;;21.08;10.10;;;18.50;76.30;;;;;;5029761;28;20120;-73
2023/03/13 07:52:47;;;;;;;34.95;11.63;;;18.60;76.60;;;;;;5030903;28;20060;-73
2023/03/13 07:56:18;;;;;;;27.70;11.65;;;18.70;75.80;;;;;;5029907;28;20528;-73
2023/03/13 07:59:22;;;;;;;17.92;10.18;;;18.70;75.80;;;;;;5030929;28;20045;-73
2023/03/13 08:02:26;;;;;;;16.27;9.45;;;18.70;74.30;;;;;;5030086;28;20500;-73
2023/03/13 08:05:30;;;;;;;15.57;8.68;;;18.60;75.10;;;;;;5030583;28;20075;-74
2023/03/13 08:08:35;;;;;;;23.98;9.45;;;18.70;74.40;;;;;;5029755;28;20048;-74
2023/03/13 08:11:40;;;;;;;14.05;6.95;;;19.00;74.40;;;;;;5030576;28;20048;-74
2023/03/13 08:14:44;;;;;;;18.05;7.90;;;19.20;74.40;;;;;;5031255;28;20052;-73
2023/03/13 08:17:47;;;;;;;17.27;7.40;;;19.10;74.20;;;;;;5030297;28;20048;-74
2023/03/13 08:20:51;;;;;;;16.13;7.45;;;19.20;74.30;;;;;;5030701;28;20496;-73
2023/03/13 08:23:58;;;;;;;20.80;7.28;;;19.40;73.70;;;;;;5030568;28;20059;-73
2023/03/13 08:27:02;;;;;;;17.08;6.65;;;19.40;72.50;;;;;;5030907;28;20116;-74
2023/03/13 08:30:07;;;;;;;16.77;6.55;;;19.40;73.10;;;;;;5030501;28;20520;-73
2023/03/13 08:33:11;;;;;;;18.30;6.70;;;19.60;73.70;;;;;;5030480;28;20057;-74
2023/03/13 08:36:24;;;;;;;12.60;6.75;;;19.80;73.00;;;;;;5030745;28;20389;-74
2023/03/13 08:39:28;;;;;;;20.20;8.23;;;19.90;72.90;;;;;;5028957;28;20052;-74
2023/03/13 08:42:32;;;;;;;14.05;6.15;;;20.00;73.30;;;;;;5030740;28;20048;-74
2023/03/13 08:45:36;;;;;;;18.83;7.13;;;20.10;73.00;;;;;;5030242;28;20052;-75
2023/03/13 08:48:42;;;;;;;9.68;6.13;;;20.20;71.40;;;;;;5030425;28;20040;-74
2023/03/13 08:51:46;;;;;;;15.23;6.18;;;20.30;71.60;;;;;;5030401;28;20064;-75
2023/03/13 08:54:50;;;;;;;11.05;5.20;;;20.40;71.20;;;;;;5034076;28;20040;-74
2023/03/13 08:57:54;;;;;;;13.18;5.05;;;20.40;68.70;;;;;;5034230;28;20151;-75
2023/03/13 09:01:07;;;;;;;12.07;4.63;;;20.50;67.80;;;;;;5034446;28;20465;-77
2023/03/13 09:04:10;;;;;;;13.20;4.88;;;20.50;68.40;;;;;;5034240;28;20056;-72
2023/03/13 09:07:15;;;;;;;11.80;4.55;;;20.50;67.80;;;;;;5033526;28;20056;-73
2023/03/13 09:10:19;;;;;;;12.63;3.75;;;20.40;67.90;;;;;;5033734;28;20045;-72
2023/03/13 09:13:24;;;;;;;9.35;3.78;;;20.50;68.70;;;;;;5033507;28;20045;-72
2023/03/13 09:16:30;;;;;;;9.98;3.38;;;20.60;68.50;;;;;;5033688;28;20082;-72
2023/03/13 09:19:34;;;;;;;8.27;3.65;;;20.60;67.40;;;;;;5033318;28;20040;-72
2023/03/13 09:22:38;;;;;;;17.65;4.53;;;20.60;66.80;;;;;;5033729;28;20064;-71
2023/03/13 09:25:43;;;;;;;8.77;3.95;;;20.60;67.10;;;;;;5033349;28;20085;-71
2023/03/13 09:28:47;;;;;;;8.20;3.97;;;20.50;68.30;;;;;;5033380;28;20060;-72
2023/03/13 09:31:51;;;;;;;19.58;5.28;;;20.60;69.30;;;;;;5033282;28;20049;-72
2023/03/13 09:34:54;;;;;;;11.68;4.03;;;20.70;68.50;;;;;;5032583;28;20358;-72
2023/03/13 09:37:58;;;;;;;6.55;2.90;;;20.90;67.50;;;;;;5033594;28;20056;-73
2023/03/13 09:41:21;;;;;;;8.13;3.08;;;21.00;66.50;;;;;;5032565;28;20113;-70
2023/03/13 09:44:32;;;;;;;11.07;3.85;;;21.00;65.40;;;;;;5031857;28;20059;-71
2023/03/13 09:47:47;;;;;;;7.70;2.97;;;21.10;66.20;;;;;;5032281;28;20128;-72
2023/03/13 09:51:06;;;;;;;13.75;3.17;;;21.30;66.20;;;;;;5032664;28;20391;-72
2023/03/13 09:54:36;;;;;;;5.57;2.80;;;21.20;64.70;;;;;;5032944;28;20045;-72
2023/03/13 09:58:05;;;;;;;11.38;4.25;;;21.30;65.70;;;;;;5032936;28;20049;-72
2023/03/13 10:01:11;;;;;;;7.43;4.18;;;21.40;66.20;;;;;;5033028;28;20052;-71
2023/03/13 10:04:18;;;;;;;6.53;2.75;;;21.60;67.50;;;;;;5032399;28;20036;-72
2023/03/13 10:07:22;;;;;;;12.32;3.92;;;21.70;66.60;;;;;;5032917;28;20389;-71
2023/03/13 10:10:46;;;;;;;5.32;2.60;;;21.60;67.40;;;;;;5032892;28;20520;-72
2023/03/13 10:14:12;;;;;;;11.52;2.92;;;21.70;67.50;;;;;;5032791;28;20583;-71
2023/03/13 10:17:32;;;;;;;7.78;2.80;;;21.70;67.20;;;;;;5032936;28;20401;-71
2023/03/13 10:20:37;;;;;;;8.00;2.13;;;21.60;68.30;;;;;;5032058;28;20393;-71
2023/03/13 10:24:05;;;;;;;7.85;1.67;;;21.70;68.50;;;;;;5032739;28;20283;-71
2023/03/13 10:27:12;;;;;;;5.82;1.95;;;21.80;67.90;;;;;;5032725;28;20041;-71
2023/03/13 10:30:31;;;;;;;7.88;2.42;;;21.90;68.80;;;;;;5032290;28;20398;-71
2023/03/13 10:33:37;;;;;;;6.53;1.88;;;22.10;67.80;;;;;;5032612;28;20067;-72
2023/03/13 10:36:56;;;;;;;6.28;2.25;;;22.20;68.20;;;;;;5032157;28;20044;-71
2023/03/13 10:40:25;;;;;;;4.00;2.08;;;22.20;67.80;;;;;;5032209;28;20052;-71
2023/03/13 10:43:29;;;;;;;6.47;2.30;;;22.10;68.20;;;;;;5032184;28;20056;-72
2023/03/13 10:46:38;;;;;;;11.85;2.42;;;21.80;68.40;;;;;;5031994;28;20044;-72
2023/03/13 10:49:56;;;;;;;11.00;2.22;;;21.80;69.20;;;;;;5031614;28;20049;-71
2023/03/13 10:53:35;;;;;;;5.90;1.70;;;21.90;68.00;;;;;;5032196;28;20092;-74
2023/03/13 10:56:39;;;;;;;3.15;1.20;;;21.70;67.60;;;;;;5030840;28;20497;-73
2023/03/13 10:59:46;;;;;;;13.10;3.30;;;21.80;68.70;;;;;;5031241;28;20283;-72
2023/03/13 11:02:50;;;;;;;10.30;2.40;;;21.90;68.20;;;;;;5031779;28;20056;-73
2023/03/13 11:05:58;;;;;;;8.32;1.98;;;21.90;67.80;;;;;;5031753;28;20044;-72
2023/03/13 11:09:14;;;;;;;11.32;2.67;;;21.90;67.50;;;;;;5031442;28;20045;-71
2023/03/13 11:12:20;;;;;;;11.25;3.00;;;21.90;68.40;;;;;;5031616;28;20154;-73
2023/03/13 11:15:30;;;;;;;8.43;2.80;;;22.00;68.30;;;;;;5031176;28;20032;-74
2023/03/13 11:18:57;;;;;;;12.15;3.08;;;22.00;68.00;;;;;;5031667;28;20048;-72
2023/03/13 11:22:14;;;;;;;17.80;3.03;;;22.00;68.30;;;;;;5031359;28;20056;-72
2023/03/13 11:25:34;;;;;;;10.65;3.13;;;22.00;68.40;;;;;;5031032;28;20397;-69
2023/03/13 11:28:51;;;;;;;21.08;3.53;;;22.00;67.50;;;;;;5029911;28;20044;-72
2023/03/13 11:31:59;;;;;;;40.92;4.55;;;21.90;67.10;;;;;;5031074;28;20052;-70
2023/03/13 11:35:16;;;;;;;20.90;4.53;;;21.70;67.10;;;;;;5031191;28;20045;-69
2023/03/13 11:38:28;;;;;;;18.55;2.95;;;21.70;68.10;;;;;;5031472;28;20048;-70
2023/03/13 11:41:39;;;;;;;11.70;3.28;;;21.70;68.50;;;;;;5031235;28;20064;-69
2023/03/13 11:45:05;;;;;;;11.30;3.55;;;21.70;68.40;;;;;;5031216;28;20048;-75
2023/03/13 11:48:12;;;;;;;10.65;2.92;;;21.70;68.10;;;;;;5030705;28;20504;-71
2023/03/13 11:51:33;;;;;;;8.07;2.92;;;21.70;69.20;;;;;;5030549;28;20056;-69
2023/03/13 11:54:58;;;;;;;14.57;3.53;;;21.60;69.10;;;;;;5030429;28;20075;-69
2023/03/13 11:58:08;;;;;;;11.63;3.70;;;21.60;69.80;;;;;;5030937;28;20068;-69
2023/03/13 12:01:16;;;;;;;10.75;2.95;;;21.60;68.50;;;;;;5030638;28;20041;-69
2023/03/13 12:04:48;;;;;;;27.27;4.45;;;21.60;68.90;;;;;;5030847;28;20048;-70
2023/03/13 12:08:10;;;;;;;33.78;4.88;;;21.60;69.10;;;;;;5030115;28;20048;-70
2023/03/13 12:11:19;;;;;;;16.20;3.85;;;21.60;69.10;;;;;;5030884;28;20060;-70
2023/03/13 12:14:40;;;;;;;9.38;2.80;;;21.60;69.30;;;;;;5030673;28;20624;-70
2023/03/13 12:18:10;;;;;;;;;;;21.60;69.50;;;;;;5031562;28;20048;-70
2023/03/13 12:21:29;;;;;;;22.25;4.72;;;21.60;69.00;;;;;;5031074;28;19910;-70
2023/03/13 12:24:39;;;;;;;20.27;4.60;;;21.60;70.60;;;;;;5030989;28;20496;-70
2023/03/13 12:27:49;;;;;;;11.65;4.55;;;21.70;71.20;;;;;;5030083;28;20048;-70
2023/03/13 12:31:07;;;;;;;21.35;5.15;;;21.70;70.50;;;;;;5030695;28;20048;-70
2023/03/13 12:34:41;;;;;;;17.05;4.60;;;21.70;70.10;;;;;;5030462;28;20048;-70
2023/03/13 12:37:54;;;;;;;12.25;3.72;;;21.70;70.60;;;;;;5030575;28;20041;-70
2023/03/13 12:41:23;;;;;;;16.02;4.00;;;21.70;70.20;;;;;;5030454;28;20060;-70
2023/03/13 12:44:27;;;;;;;11.43;3.75;;;21.70;69.70;;;;;;5030750;28;20048;-70
2023/03/13 12:47:44;;;;;;;18.70;5.45;;;21.70;69.70;;;;;;5030347;28;20053;-71
2023/03/13 12:51:11;;;;;;;9.70;3.88;;;21.60;69.60;;;;;;5030058;28;20052;-70
2023/03/13 12:54:50;;;;;;;19.85;4.22;;;21.60;70.10;;;;;;5030455;28;20045;-70
2023/03/13 12:58:14;;;;;;;18.95;5.03;;;21.60;70.00;;;;;;5029779;28;20040;-70
2023/03/13 13:01:41;;;;;;;27.23;5.35;;;21.50;69.90;;;;;;5030370;28;20056;-70
2023/03/13 13:04:48;;;;;;;21.00;4.95;;;21.50;70.00;;;;;;5030693;28;20105;-70
2023/03/13 13:07:54;;;;;;;13.75;4.20;;;21.50;70.30;;;;;;5030237;28;20060;-70
2023/03/13 13:11:37;;;;;;;12.13;3.95;;;21.50;70.30;;;;;;5029511;28;20048;-70
2023/03/13 13:14:47;;;;;;;8.50;3.33;;;21.50;70.60;;;;;;5030437;28;20041;-70
2023/03/13 13:18:00;;;;;;;13.07;4.03;;;21.50;70.80;;;;;;5030118;28;20050;-70
2023/03/13 13:21:14;;;;;;;9.98;3.67;;;21.40;71.30;;;;;;5030133;28;20530;-71
2023/03/13 13:24:38;;;;;;;11.65;3.80;;;21.40;71.90;;;;;;5030106;28;20385;-72
2023/03/13 13:27:46;;;;;;;16.38;3.13;;;21.30;72.00;;;;;;5030371;28;20052;-73
2023/03/13 13:30:52;;;;;;;7.47;2.70;;;21.30;72.40;;;;;;5029882;28;20393;-72
2023/03/13 13:33:55;;;;;;;12.73;3.80;;;21.20;71.90;;;;;;5030169;28;20112;-71
2023/03/13 13:37:02;;;;;;;9.90;2.75;;;21.20;72.30;;;;;;5030106;28;20056;-72
2023/03/13 13:40:15;;;;;;;9.70;2.45;;;21.10;72.50;;;;;;5031923;28;20060;-72
2023/03/13 13:43:22;;;;;;;7.40;2.30;;;21.10;72.30;;;;;;5033864;28;20040;-72
2023/03/13 13:46:30;;;;;;;11.10;2.72;;;21.00;72.30;;;;;;5033824;28;20045;-72
2023/03/13 13:49:36;;;;;;;16.27;2.92;;;20.90;72.70;;;;;;5033860;28;20428;-72
2023/03/13 13:52:41;;;;;;;15.55;2.35;;;20.90;73.00;;;;;;5033595;28;20060;-72
2023/03/13 13:55:45;;;;;;;11.50;3.17;;;20.80;72.80;;;;;;5033479;28;20064;-72
2023/03/13 13:58:49;;;;;;;18.50;3.33;;;20.70;73.10;;;;;;5033720;28;20052;-73
2023/03/13 14:02:02;;;;;;;9.68;2.45;;;20.60;73.30;;;;;;5033476;28;20060;-72
2023/03/13 14:05:27;;;;;;;9.80;2.75;;;20.50;74.20;;;;;;5033009;28;20047;-75
2023/03/13 14:08:40;;;;;;;7.68;2.20;;;20.50;74.90;;;;;;5032588;28;20047;-74
2023/03/13 14:11:44;;;;;;;12.50;3.75;;;20.40;74.80;;;;;;5032851;28;20048;-73
2023/03/13 14:14:48;;;;;;;8.60;2.67;;;20.40;75.10;;;;;;5033054;28;20048;-72
2023/03/13 14:18:14;;;;;;;11.68;2.65;;;20.40;75.10;;;;;;5032800;28;20040;-72
2023/03/13 14:21:26;;;;;;;8.63;2.63;;;20.30;75.10;;;;;;5038204;28;20521;-72
2023/03/13 14:24:30;;;;;;;18.52;3.10;;;20.20;75.20;;;;;;5033079;28;20044;-71
2023/03/13 14:27:42;;;;;;;14.18;2.50;;;20.20;75.60;;;;;;5032966;28;20060;-72
2023/03/13 14:30:49;;;;;;;11.10;2.55;;;20.10;74.90;;;;;;5031578;28;20040;-72
2023/03/13 14:33:54;;;;;;;9.10;2.67;;;20.10;75.20;;;;;;5033257;28;20056;-72
2023/03/13 14:36:59;;;;;;;11.75;2.63;;;20.00;75.00;;;;;;5037577;28;20044;-71
2023/03/13 14:40:17;;;;;;;9.55;2.40;;;20.00;75.50;;;;;;5039666;28;20052;-71
2023/03/13 14:43:28;;;;;;;11.68;2.80;;;19.90;75.40;;;;;;5033555;28;20053;-72
2023/03/13 14:46:40;;;;;;;15.45;3.63;;;19.90;76.00;;;;;;5038121;28;20060;-71
2023/03/13 14:49:45;;;;;;;12.40;2.85;;;19.90;74.80;;;;;;5041945;28;20512;-73
2023/03/13 14:53:17;;;;;;;13.93;2.90;;;19.80;75.50;;;;;;5036884;28;20061;-71
2023/03/13 14:56:33;;;;;;;11.85;3.13;;;19.80;76.30;;;;;;5042070;28;20500;-72
2023/03/13 14:59:37;;;;;;;52.78;7.35;;;19.70;77.00;;;;;;5038983;28;20056;-72
2023/03/13 15:02:42;;;;;;;15.88;3.47;;;19.70;77.80;;;;;;5033410;28;20064;-72
2023/03/13 15:05:47;;;;;;;18.80;3.83;;;19.70;78.50;;;;;;5034163;28;20052;-73
2023/03/13 15:09:17;;;;;;;13.57;3.22;;;19.60;79.10;;;;;;5032196;28;20053;-73
2023/03/13 15:12:22;;;;;;;13.85;3.28;;;19.60;79.30;;;;;;5032310;28;20052;-74
2023/03/13 15:15:26;;;;;;;18.30;4.20;;;19.50;79.40;;;;;;5031324;28;20035;-73
2023/03/13 15:18:33;;;;;;;14.75;3.65;;;19.50;79.90;;;;;;5031367;28;20139;-73
2023/03/13 15:21:37;;;;;;;20.73;4.03;;;19.50;80.40;;;;;;5030764;28;20056;-72
2023/03/13 15:24:42;;;;;;;16.73;3.90;;;19.40;80.80;;;;;;5031231;28;20044;-72
2023/03/13 15:27:48;;;;;;;18.83;3.95;;;19.30;80.70;;;;;;5031283;28;20500;-72
2023/03/13 15:30:51;;;;;;;17.52;3.55;;;19.30;81.50;;;;;;5031464;28;20040;-70
2023/03/13 15:33:59;;;;;;;16.95;4.05;;;19.30;82.60;;;;;;5031110;28;20069;-72
2023/03/13 15:37:03;;;;;;;15.50;3.50;;;19.30;82.50;;;;;;5030527;28;20037;-75
2023/03/13 15:40:13;;;;;;;11.80;3.75;;;19.20;82.90;;;;;;5030153;28;20052;-72
2023/03/13 15:43:19;;;;;;;42.88;5.60;;;19.20;83.30;;;;;;5031055;28;20041;-73
2023/03/13 15:46:24;;;;;;;13.65;4.30;;;19.20;83.70;;;;;;5031214;28;20044;-76
2023/03/13 15:49:29;;;;;;;15.77;3.83;;;19.10;84.30;;;;;;5030780;28;20048;-74
2023/03/13 15:52:34;;;;;;;21.98;4.88;;;19.00;84.70;;;;;;5030970;28;20516;-75
2023/03/13 15:55:38;;;;;;;20.98;4.32;;;19.00;85.20;;;;;;5031029;28;20397;-77
2023/03/13 15:58:44;;;;;;;18.60;4.97;;;19.00;85.20;;;;;;5030807;28;20044;-78
2023/03/13 16:01:48;;;;;;;22.98;4.32;;;18.90;85.40;;;;;;5030274;28;20049;-77
2023/03/13 16:04:54;;;;;;;26.77;4.97;;;18.90;85.70;;;;;;5031103;28;20052;-78
2023/03/13 16:07:58;;;;;;;18.77;4.53;;;18.90;85.90;;;;;;5030894;28;20504;-77
2023/03/13 16:11:03;;;;;;;22.00;5.70;;;18.80;86.30;;;;;;5031211;28;20049;-76
2023/03/13 16:14:07;;;;;;;23.42;5.18;;;18.70;86.50;;;;;;5031448;28;20048;-76
2023/03/13 16:17:14;;;;;;;21.42;4.97;;;18.70;86.90;;;;;;5030896;28;20095;-77
2023/03/13 16:20:22;;;;;;;28.73;7.70;;;18.70;87.60;;;;;;5029194;28;20067;-76